Time;durP1;ratioP1;P1;durP2;ratioP2;P2;SDS_P1;SDS_P2;PMS_P1;PMS_P2;Temp;Humidity;BMP_temperature;BMP_pressure;BME280_temperature;BME280_humidity;BME280_pressure;Samples;Min_cycle;Max_cycle;Signal;HPM_P1;HPM_P2
2023/11/07 00:01:31;;;;;;;8.80;2.22;;;;;;;10.63;100.00;100675.09;5253366;28;20032;-73
2023/11/07 00:04:02;;;;;;;17.73;2.55;;;;;;;10.70;100.00;100682.47;5253292;28;20592;-73
2023/11/07 00:06:32;;;;;;;5.75;2.25;;;;;;;10.63;100.00;100687.66;5252790;28;20366;-72
2023/11/07 00:09:03;;;;;;;14.30;2.38;;;;;;;10.54;100.00;100678.81;5250793;28;20035;-72
2023/11/07 00:11:35;;;;;;;6.63;2.40;;;;;;;10.67;100.00;100682.81;5253479;28;20039;-74
2023/11/07 00:14:06;;;;;;;31.08;4.50;;;;;;;10.48;100.00;100684.84;5253597;28;20130;-73
2023/11/07 00:16:36;;;;;;;11.98;2.60;;;;;;;10.57;100.00;100674.94;5253937;28;20113;-73
2023/11/07 00:19:07;;;;;;;10.88;2.50;;;;;;;10.54;100.00;100683.31;5262794;28;20425;-72
2023/11/07 00:21:37;;;;;;;9.93;2.25;;;;;;;10.48;100.00;100682.16;5256131;28;20067;-72
2023/11/07 00:24:08;;;;;;;12.38;2.65;;;;;;;10.45;100.00;100671.78;5252303;28;20358;-74
2023/11/07 00:26:39;;;;;;;10.38;2.53;;;;;;;10.44;100.00;100679.97;5254551;28;20032;-73
2023/11/07 00:29:11;;;;;;;15.15;2.75;;;;;;;10.45;100.00;100685.19;5251392;28;20236;-73
2023/11/07 00:31:41;;;;;;;11.18;3.08;;;;;;;10.50;100.00;100682.00;5255757;28;20029;-72
2023/11/07 00:34:16;;;;;;;18.58;2.97;;;;;;;10.41;100.00;100686.53;5252446;28;20049;-74
2023/11/07 00:36:47;;;;;;;14.95;2.65;;;;;;;10.49;100.00;100680.31;5254901;28;20075;-74
2023/11/07 00:39:17;;;;;;;14.63;3.00;;;;;;;10.38;100.00;100684.19;5251409;28;20490;-73
2023/11/07 00:41:48;;;;;;;9.52;2.38;;;;;;;10.39;100.00;100688.53;5258862;28;20055;-72
2023/11/07 00:44:18;;;;;;;11.10;2.50;;;;;;;10.37;100.00;100698.59;5257096;28;20054;-72
2023/11/07 00:46:48;;;;;;;13.15;3.20;;;;;;;10.31;100.00;100694.75;5250256;28;20029;-73
2023/11/07 00:49:19;;;;;;;10.85;2.22;;;;;;;10.30;100.00;100693.09;5255203;28;20441;-73
2023/11/07 00:51:49;;;;;;;13.98;2.85;;;;;;;10.25;100.00;100697.28;5256111;28;20032;-72
2023/11/07 00:54:20;;;;;;;16.30;2.80;;;;;;;10.23;100.00;100705.44;5251232;28;20023;-72
2023/11/07 00:56:50;;;;;;;13.40;2.42;;;;;;;10.22;100.00;100700.25;5258614;28;20024;-74
2023/11/07 00:59:21;;;;;;;8.98;2.72;;;;;;;10.22;100.00;100710.97;5261519;28;20020;-73
2023/11/07 01:01:51;;;;;;;9.95;2.40;;;;;;;10.18;100.00;100698.91;5255252;28;20039;-73
2023/11/07 01:04:23;;;;;;;12.07;3.22;;;;;;;10.19;100.00;100701.44;5252222;28;20026;-73
2023/11/07 01:06:54;;;;;;;20.65;2.92;;;;;;;10.18;100.00;100698.91;5258291;28;20024;-72
2023/11/07 01:09:24;;;;;;;11.57;4.13;;;;;;;10.13;100.00;100708.28;5252656;28;20422;-72
2023/11/07 01:11:55;;;;;;;16.13;3.17;;;;;;;10.09;100.00;100706.97;5252106;28;20036;-72
2023/11/07 01:14:25;;;;;;;14.02;2.80;;;;;;;10.06;100.00;100701.09;5259702;28;20450;-72
2023/11/07 01:16:56;;;;;;;14.48;3.30;;;;;;;10.09;100.00;100700.72;5250004;28;20029;-73
2023/11/07 01:19:27;;;;;;;13.60;3.50;;;;;;;10.06;100.00;100701.91;5254938;28;20027;-74
2023/11/07 01:21:57;;;;;;;12.80;2.95;;;;;;;10.24;100.00;100698.25;5251793;28;20443;-73
2023/11/07 01:24:28;;;;;;;12.35;3.15;;;;;;;10.26;100.00;100699.78;5254231;28;20032;-73
2023/11/07 01:26:58;;;;;;;15.20;3.15;;;;;;;10.07;100.00;100710.78;5255339;28;20488;-72
2023/11/07 01:29:29;;;;;;;17.80;3.65;;;;;;;9.96;100.00;100714.66;5250572;28;20029;-72
2023/11/07 01:31:59;;;;;;;12.88;3.33;;;;;;;9.98;100.00;100709.94;5253110;28;20358;-73
2023/11/07 01:34:30;;;;;;;14.70;3.67;;;;;;;10.00;100.00;100717.84;5260590;28;20034;-72
2023/11/07 01:37:01;;;;;;;19.40;3.15;;;;;;;9.97;100.00;100713.63;5253572;28;20045;-72
2023/11/07 01:39:32;;;;;;;12.63;3.38;;;;;;;10.01;100.00;100716.81;5257173;28;20044;-72
2023/11/07 01:42:03;;;;;;;12.50;3.47;;;;;;;9.99;100.00;100722.38;5259754;28;20038;-73
2023/11/07 01:44:34;;;;;;;11.98;3.33;;;;;;;9.99;100.00;100718.81;5251210;28;20478;-73
2023/11/07 01:47:04;;;;;;;14.95;3.50;;;;;;;10.05;100.00;100727.06;5251326;28;20041;-73
2023/11/07 01:49:35;;;;;;;16.95;3.33;;;;;;;10.10;100.00;100721.19;5253907;28;20028;-73
2023/11/07 01:52:06;;;;;;;18.60;3.70;;;;;;;10.10;100.00;100723.88;5253046;28;20032;-72
2023/11/07 01:54:37;;;;;;;15.85;4.45;;;;;;;10.15;100.00;100734.09;5253699;28;20028;-72
2023/11/07 01:57:08;;;;;;;14.68;3.20;;;;;;;10.19;100.00;100733.59;5255688;28;20026;-73
2023/11/07 01:59:39;;;;;;;19.83;3.70;;;;;;;10.18;100.00;100728.41;5257695;28;20025;-73
2023/11/07 02:02:13;;;;;;;9.00;2.70;;;;;;;10.16;100.00;100733.94;5254210;28;20042;-72
2023/11/07 02:04:46;;;;;;;12.15;3.00;;;;;;;10.17;100.00;100734.78;5259269;28;20108;-74
2023/11/07 02:07:17;;;;;;;15.77;3.45;;;;;;;10.20;100.00;100731.75;5257452;28;20028;-72
2023/11/07 02:09:47;;;;;;;19.45;3.25;;;;;;;10.24;100.00;100733.97;5259744;28;20778;-72
2023/11/07 02:12:18;;;;;;;14.65;3.30;;;;;;;10.25;100.00;100740.19;5260862;28;20081;-73
2023/11/07 02:14:48;;;;;;;13.80;3.38;;;;;;;10.30;100.00;100732.47;5255156;28;20032;-73
2023/11/07 02:17:19;;;;;;;10.63;3.13;;;;;;;10.37;100.00;100738.81;5258855;28;20036;-72
2023/11/07 02:19:50;;;;;;;11.68;3.33;;;;;;;10.33;100.00;100741.00;5256563;28;20024;-73
2023/11/07 02:22:23;;;;;;;14.70;3.80;;;;;;;10.43;100.00;100735.47;5258560;28;20046;-73
2023/11/07 02:24:53;;;;;;;14.02;3.58;;;;;;;10.53;100.00;100736.13;5254352;28;20024;-72
2023/11/07 02:27:24;;;;;;;18.48;4.93;;;;;;;10.52;100.00;100733.63;5257630;28;20478;-73
2023/11/07 02:29:54;;;;;;;19.85;4.28;;;;;;;10.46;100.00;100734.31;5256017;28;20081;-72
2023/11/07 02:32:25;;;;;;;16.30;3.83;;;;;;;10.51;100.00;100730.13;5256445;28;20024;-73
2023/11/07 02:34:55;;;;;;;13.88;4.40;;;;;;;10.45;100.00;100744.22;5258185;28;20036;-73
2023/11/07 02:37:26;;;;;;;13.52;4.28;;;;;;;10.40;100.00;100735.00;5256448;28;20493;-72
2023/11/07 02:39:56;;;;;;;17.55;3.70;;;;;;;10.41;100.00;100734.81;5256837;28;20036;-73
2023/11/07 02:42:28;;;;;;;14.25;4.38;;;;;;;10.41;100.00;100742.84;5259400;28;20023;-73
2023/11/07 02:44:59;;;;;;;11.20;3.80;;;;;;;10.36;100.00;100737.16;5256245;28;20073;-73
2023/11/07 02:47:29;;;;;;;11.27;4.28;;;;;;;10.37;100.00;100736.16;5255892;28;20023;-73
2023/11/07 02:50:01;;;;;;;12.43;3.75;;;;;;;10.32;100.00;100733.13;5256146;28;20417;-73
2023/11/07 02:52:31;;;;;;;17.85;4.13;;;;;;;10.29;100.00;100733.44;5258709;28;20028;-73
2023/11/07 02:55:02;;;;;;;18.05;4.75;;;;;;;10.24;100.00;100741.16;5257415;28;20016;-73
2023/11/07 02:57:36;;;;;;;16.55;4.20;;;;;;;10.18;100.00;100731.06;5256236;28;20043;-72
2023/11/07 03:00:14;;;;;;;19.08;4.75;;;;;;;10.17;100.00;100727.56;5260425;28;20504;-73
2023/11/07 03:02:44;;;;;;;12.65;4.32;;;;;;;10.15;100.00;100732.25;5253675;28;20091;-72
2023/11/07 03:05:15;;;;;;;21.38;5.13;;;;;;;10.13;100.00;100726.22;5255383;28;20020;-72
2023/11/07 03:07:47;;;;;;;16.73;5.88;;;;;;;10.13;100.00;100726.22;5261833;28;20439;-73
2023/11/07 03:10:18;;;;;;;20.42;5.05;;;;;;;10.05;100.00;100727.06;5261452;28;20013;-73
2023/11/07 03:12:54;;;;;;;20.00;5.63;;;;;;;10.01;100.00;100724.88;5260140;28;20031;-73
2023/11/07 03:15:25;;;;;;;15.05;5.43;;;;;;;10.08;100.00;100726.69;5254901;28;20555;-72
2023/11/07 03:17:56;;;;;;;20.88;5.18;;;;;;;10.08;100.00;100726.69;5257547;28;20325;-72
2023/11/07 03:20:27;;;;;;;14.02;4.72;;;;;;;9.99;100.00;100732.22;5259655;28;20031;-73
2023/11/07 03:22:58;;;;;;;15.68;5.85;;;;;;;10.11;100.00;100731.75;5251907;28;20027;-74
2023/11/07 03:25:31;;;;;;;22.15;5.22;;;;;;;10.07;100.00;100738.44;5253958;28;20032;-73
2023/11/07 03:28:02;;;;;;;15.20;4.40;;;;;;;10.05;100.00;100728.91;5262427;28;20028;-73
2023/11/07 03:30:32;;;;;;;22.60;5.63;;;;;;;10.03;100.00;100722.84;5257911;28;20119;-73
2023/11/07 03:33:03;;;;;;;16.50;5.05;;;;;;;10.02;100.00;100723.84;5259349;28;20031;-72
2023/11/07 03:35:34;;;;;;;19.88;4.57;;;;;;;9.96;100.00;100722.69;5258501;28;20115;-73
2023/11/07 03:38:04;;;;;;;16.55;4.78;;;;;;;9.91;100.00;100716.97;5258507;28;20038;-72
2023/11/07 03:40:35;;;;;;;14.38;5.10;;;;;;;9.89;100.00;100721.69;5258374;28;20077;-73
2023/11/07 03:43:05;;;;;;;15.82;5.10;;;;;;;9.81;100.00;100722.50;5259585;28;20027;-72
2023/11/07 03:45:36;;;;;;;23.52;5.93;;;;;;;9.84;100.00;100732.06;5257697;28;20031;-73
2023/11/07 03:48:06;;;;;;;25.75;5.60;;;;;;;9.80;100.00;100728.03;5252841;28;20020;-74
2023/11/07 03:50:37;;;;;;;19.15;5.95;;;;;;;9.78;100.00;100732.69;5258529;28;20112;-72
2023/11/07 03:53:07;;;;;;;20.08;5.80;;;;;;;9.82;100.00;100732.19;5255035;28;20028;-72
2023/11/07 03:55:38;;;;;;;19.98;5.20;;;;;;;9.78;100.00;100727.31;5262311;28;20102;-72
2023/11/07 03:58:08;;;;;;;15.80;5.85;;;;;;;9.84;100.00;100738.25;5251832;28;20390;-74
2023/11/07 04:00:40;;;;;;;15.85;5.57;;;;;;;9.75;100.00;100739.22;5255569;28;20028;-73
2023/11/07 04:03:11;;;;;;;27.60;6.10;;;;;;;9.77;100.00;100733.69;5252083;28;20027;-73
2023/11/07 04:05:41;;;;;;;24.73;6.22;;;;;;;9.72;100.00;100736.84;5253901;28;20705;-72
2023/11/07 04:08:12;;;;;;;19.85;5.38;;;;;;;9.72;100.00;100744.06;5254701;28;20428;-73
2023/11/07 04:10:42;;;;;;;17.15;5.85;;;;;;;9.68;100.00;100753.41;5261941;28;20096;-73
2023/11/07 04:13:13;;;;;;;23.23;6.32;;;;;;;9.69;100.00;100752.41;5264785;28;20393;-72
2023/11/07 04:15:43;;;;;;;20.58;5.57;;;;;;;9.65;100.00;100748.41;5258397;28;20016;-72
2023/11/07 04:18:14;;;;;;;20.00;5.53;;;;;;;9.60;100.00;100756.94;5265075;28;20477;-72
2023/11/07 04:20:46;;;;;;;21.92;6.22;;;;;;;9.58;100.00;100753.56;5264230;28;20035;-72
2023/11/07 04:23:17;;;;;;;16.92;5.88;;;;;;;9.55;100.00;100764.59;5260732;28;20482;-73
2023/11/07 04:25:50;;;;;;;24.15;7.15;;;;;;;9.53;100.00;100764.75;5254149;28;20024;-72
2023/11/07 04:28:20;;;;;;;17.70;5.95;;;;;;;9.47;100.00;100764.56;5262682;28;20043;-72
2023/11/07 04:30:52;;;;;;;14.60;5.82;;;;;;;9.43;100.00;100757.84;5256721;28;20170;-72
2023/11/07 04:33:23;;;;;;;16.48;5.80;;;;;;;9.44;100.00;100764.88;5261723;28;20016;-72
2023/11/07 04:35:53;;;;;;;19.23;6.18;;;;;;;9.43;100.00;100758.69;5258284;28;20031;-72
2023/11/07 04:38:24;;;;;;;21.08;7.43;;;;;;;9.38;100.00;100760.16;5265876;28;20394;-72
2023/11/07 04:40:54;;;;;;;15.20;5.55;;;;;;;9.42;100.00;100764.22;5257081;28;20036;-72
2023/11/07 04:43:26;;;;;;;14.98;5.47;;;;;;;9.41;100.00;100760.69;5265021;28;20020;-72
2023/11/07 04:45:56;;;;;;;25.15;5.97;;;;;;;9.39;100.00;100754.66;5256265;28;20035;-72
2023/11/07 04:48:27;;;;;;;14.27;5.32;;;;;;;9.38;100.00;100766.34;5265544;28;20031;-72
2023/11/07 04:50:59;;;;;;;19.13;6.13;;;;;;;9.41;100.00;100760.69;5264017;28;20028;-72
2023/11/07 04:53:30;;;;;;;19.25;5.75;;;;;;;9.48;100.00;100753.69;5261144;28;20431;-74
2023/11/07 04:56:00;;;;;;;16.10;5.63;;;;;;;9.52;100.00;100754.19;5262771;28;20027;-72
2023/11/07 04:58:31;;;;;;;16.25;5.82;;;;;;;9.51;100.00;100758.72;5260535;28;20093;-72
2023/11/07 05:01:01;;;;;;;18.92;5.32;;;;;;;9.53;100.00;100747.84;5267502;28;20050;-73
2023/11/07 05:03:32;;;;;;;13.02;5.80;;;;;;;9.51;100.00;100744.50;5263274;28;20032;-73
2023/11/07 05:06:03;;;;;;;14.63;5.55;;;;;;;9.46;100.00;100747.66;5259302;28;20067;-72
2023/11/07 05:08:34;;;;;;;24.02;6.53;;;;;;;9.39;100.00;100749.31;5255919;28;20099;-72
2023/11/07 05:11:04;;;;;;;17.30;5.65;;;;;;;9.40;100.00;100752.81;5256787;28;20028;-72
2023/11/07 05:13:35;;;;;;;13.23;4.78;;;;;;;9.40;100.00;100751.00;5254596;28;20133;-73
2023/11/07 05:16:06;;;;;;;13.68;5.32;;;;;;;9.37;100.00;100750.47;5256665;28;20035;-72
2023/11/07 05:18:37;;;;;;;14.50;5.72;;;;;;;9.41;100.00;100759.84;5263078;28;20028;-73
2023/11/07 05:21:08;;;;;;;17.42;5.75;;;;;;;9.47;100.00;100756.53;5257292;28;20031;-72
2023/11/07 05:23:38;;;;;;;15.10;5.43;;;;;;;9.51;100.00;100750.69;5268756;28;20032;-72
2023/11/07 05:26:10;;;;;;;13.73;5.35;;;;;;;9.59;100.00;100757.94;5254327;28;20051;-73
2023/11/07 05:28:40;;;;;;;14.63;5.30;;;;;;;9.64;100.00;100754.72;5266762;28;20481;-74
2023/11/07 05:31:11;;;;;;;13.80;5.15;;;;;;;9.67;100.00;100747.22;5263156;28;20103;-72
2023/11/07 05:33:43;;;;;;;15.98;5.85;;;;;;;9.66;100.00;100760.78;5267399;28;20034;-72
2023/11/07 05:36:15;;;;;;;11.77;5.07;;;;;;;9.70;100.00;100756.78;5263721;28;20032;-72
2023/11/07 05:38:47;;;;;;;19.55;5.32;;;;;;;9.73;100.00;100754.59;5266011;28;20397;-72
2023/11/07 05:41:18;;;;;;;17.98;6.05;;;;;;;9.73;100.00;100759.97;5268358;28;20116;-73
2023/11/07 05:43:49;;;;;;;14.40;5.70;;;;;;;9.75;100.00;100759.81;5260221;28;20035;-74
2023/11/07 05:46:21;;;;;;;14.02;5.93;;;;;;;9.80;100.00;100765.53;5269027;28;20093;-73
2023/11/07 05:48:52;;;;;;;13.90;5.70;;;;;;;9.74;100.00;100756.31;5261211;28;20032;-72
2023/11/07 05:51:23;;;;;;;18.25;5.60;;;;;;;9.84;100.00;100764.22;5263077;28;20085;-73
2023/11/07 05:53:54;;;;;;;17.90;5.65;;;;;;;9.75;100.00;100757.97;5252558;28;20035;-73
2023/11/07 05:56:24;;;;;;;17.50;6.00;;;;;;;9.73;100.00;100754.59;5261961;28;20723;-73
2023/11/07 05:58:55;;;;;;;17.23;6.53;;;;;;;9.64;100.00;100754.72;5267625;28;20704;-74
2023/11/07 06:01:26;;;;;;;19.90;5.78;;;;;;;9.59;100.00;100750.72;5261751;28;20983;-72
2023/11/07 06:03:56;;;;;;;12.32;5.57;;;;;;;9.52;100.00;100755.03;5258722;28;20028;-72
2023/11/07 06:06:26;;;;;;;15.45;5.72;;;;;;;9.54;100.00;100754.91;5253791;28;20111;-73
2023/11/07 06:08:57;;;;;;;20.23;5.75;;;;;;;9.53;100.00;100759.38;5265233;28;20046;-73
2023/11/07 06:11:28;;;;;;;16.40;6.82;;;;;;;9.52;100.00;100763.06;5256423;28;20020;-72
2023/11/07 06:13:58;;;;;;;15.98;6.07;;;;;;;9.47;100.00;100773.44;5261473;28;20036;-74
2023/11/07 06:16:29;;;;;;;17.67;6.05;;;;;;;9.50;100.00;100777.63;5252808;28;20039;-73
2023/11/07 06:18:59;;;;;;;16.40;5.70;;;;;;;9.47;100.00;100780.63;5252456;28;20035;-73
2023/11/07 06:21:30;;;;;;;17.55;6.00;;;;;;;9.45;100.00;100778.13;5260618;28;20027;-72
2023/11/07 06:24:00;;;;;;;20.35;6.38;;;;;;;9.37;100.00;100774.56;5262689;28;20032;-73
2023/11/07 06:26:31;;;;;;;14.45;6.40;;;;;;;9.38;100.00;100774.38;5254165;28;20032;-73
2023/11/07 06:29:02;;;;;;;15.35;5.63;;;;;;;9.34;100.00;100778.41;5253324;28;20023;-74
2023/11/07 06:31:32;;;;;;;14.88;6.00;;;;;;;9.36;100.00;100783.59;5257745;28;20048;-73
2023/11/07 06:34:04;;;;;;;15.25;6.32;;;;;;;9.36;100.00;100779.06;5255241;28;20054;-73
2023/11/07 06:36:35;;;;;;;20.90;7.03;;;;;;;9.38;100.00;100776.22;5256861;28;20032;-73
2023/11/07 06:39:06;;;;;;;15.93;6.65;;;;;;;9.42;100.00;100778.44;5258428;28;20036;-74
2023/11/07 06:41:38;;;;;;;18.17;7.10;;;;;;;9.33;100.00;100787.41;5263842;28;20062;-72
2023/11/07 06:44:08;;;;;;;19.13;7.28;;;;;;;9.36;100.00;100794.31;5251388;28;20036;-73
2023/11/07 06:46:41;;;;;;;21.13;6.57;;;;;;;9.33;100.00;100795.44;5254175;28;20036;-73
2023/11/07 06:49:11;;;;;;;18.33;7.05;;;;;;;9.29;100.00;100791.44;5249398;28;20031;-73
2023/11/07 06:51:43;;;;;;;18.25;7.45;;;;;;;9.25;100.00;100792.75;5259232;28;20028;-74
2023/11/07 06:54:13;;;;;;;23.27;7.47;;;;;;;9.26;100.00;100799.78;5262921;28;20516;-73
2023/11/07 06:56:45;;;;;;;19.27;7.30;;;;;;;9.29;100.00;100807.50;5253784;28;20120;-72
2023/11/07 06:59:19;;;;;;;19.83;8.57;;;;;;;9.25;100.00;100808.81;5267879;28;20032;-72
2023/11/07 07:01:51;;;;;;;18.83;7.47;;;;;;;9.30;100.00;100817.19;5239594;28;20028;-73
2023/11/07 07:04:22;;;;;;;17.00;7.30;;;;;;;9.32;100.00;100810.66;5259168;28;20135;-74
2023/11/07 07:06:52;;;;;;;23.67;8.85;;;;;;;9.32;100.00;100820.53;5264141;28;20111;-74
2023/11/07 07:09:25;;;;;;;21.23;8.50;;;;;;;9.33;100.00;100825.72;5256545;28;20400;-73
2023/11/07 07:11:58;;;;;;;18.40;7.82;;;;;;;9.32;100.00;100821.38;5260087;28;20469;-73
2023/11/07 07:14:29;;;;;;;27.05;8.15;;;;;;;9.32;100.00;100825.91;5257548;28;20110;-74
2023/11/07 07:17:03;;;;;;;28.48;9.57;;;;;;;9.30;100.00;100828.75;5260788;28;20103;-74
2023/11/07 07:19:37;;;;;;;21.85;7.63;;;;;;;9.46;100.00;100838.69;5262139;28;20040;-73
2023/11/07 07:22:08;;;;;;;17.93;7.53;;;;;;;9.51;100.00;100846.25;5261638;28;20448;-73
2023/11/07 07:24:39;;;;;;;15.40;6.53;;;;;;;9.67;100.00;100848.19;5259668;28;20028;-73
2023/11/07 07:27:14;;;;;;;14.38;5.80;;;;;;;9.84;100.00;100847.28;5258411;28;20493;-74
2023/11/07 07:29:45;;;;;;;15.18;5.13;;;;;;;10.06;100.00;100843.97;5258890;28;20389;-73
2023/11/07 07:32:16;;;;;;;15.90;4.90;;;;;;;10.36;100.00;100847.09;5246414;28;20081;-72
2023/11/07 07:34:46;;;;;;;14.30;4.55;;;;;;;10.75;100.00;100857.22;5236021;28;20126;-73
2023/11/07 07:37:20;;;;;;;12.25;4.07;;;;;;;11.00;100.00;100861.56;5248309;28;20032;-73
2023/11/07 07:39:50;;;;;;;8.18;3.60;;;;;;;11.42;100.00;100865.88;5244762;28;20169;-72
2023/11/07 07:42:23;;;;;;;7.80;3.50;;;;;;;11.61;100.00;100862.81;5236588;28;20481;-72
2023/11/07 07:44:53;;;;;;;6.75;2.92;;;;;;;11.91;100.00;100855.00;5237140;28;20097;-72
2023/11/07 07:47:24;;;;;;;11.00;2.90;;;;;;;11.87;100.00;100867.13;5243357;28;20444;-72
2023/11/07 07:49:55;;;;;;;5.72;2.38;;;;;;;12.07;100.00;100872.91;5247731;28;20028;-72
2023/11/07 07:52:29;;;;;;;6.18;2.30;;;;;;;12.03;100.00;100863.50;5247370;28;20575;-73
2023/11/07 07:54:59;;;;;;;7.60;2.67;;;;;;;12.18;100.00;100867.13;5248284;28;20048;-72
2023/11/07 07:57:31;;;;;;;9.85;2.60;;;;;;;12.04;100.00;100867.88;5262000;28;20111;-72
2023/11/07 08:00:03;;;;;;;6.43;2.60;;;;;;;12.08;100.00;100870.03;5265539;28;20388;-72
2023/11/07 08:02:34;;;;;;;9.57;2.13;;;;;;;11.84;100.00;100878.19;5260338;28;20031;-72
2023/11/07 08:05:06;;;;;;;6.40;2.10;;;;;;;11.33;100.00;100877.63;5256404;28;20042;-73
2023/11/07 08:07:36;;;;;;;14.63;2.63;;;;;;;11.18;100.00;100879.34;5264265;28;20062;-72
2023/11/07 08:10:10;;;;;;;11.00;2.00;;;;;;;10.98;100.00;100890.41;5264965;28;20095;-72
2023/11/07 08:12:40;;;;;;;4.38;1.83;;;;;;;11.23;100.00;100888.56;5257543;28;20554;-73
2023/11/07 08:15:11;;;;;;;6.05;1.60;;;;;;;11.70;100.00;100890.50;5268403;28;20028;-72
2023/11/07 08:17:42;;;;;;;19.58;1.70;;;;;;;12.01;100.00;100900.50;5256110;28;20038;-72
2023/11/07 08:20:19;;;;;;;3.17;1.70;;;;;;;12.40;100.00;100887.03;5258158;28;20547;-72
2023/11/07 08:22:53;;;;;;;4.97;1.33;;;;;;;12.58;100.00;100886.75;5255494;28;20473;-72
2023/11/07 08:25:23;;;;;;;8.73;1.85;;;;;;;12.34;100.00;100885.03;5252512;28;20519;-72
2023/11/07 08:27:54;;;;;;;3.55;1.40;;;;;;;12.05;100.00;100900.00;5259603;28;20106;-72
2023/11/07 08:30:25;;;;;;;6.47;1.45;;;;;;;11.83;100.00;100896.19;5268925;28;20023;-72
2023/11/07 08:32:55;;;;;;;5.80;1.63;;;;;;;11.59;100.00;100893.53;5259962;28;20040;-72
2023/11/07 08:35:26;;;;;;;4.03;1.70;;;;;;;11.51;100.00;100890.88;5256982;28;20098;-72
2023/11/07 08:37:57;;;;;;;3.88;1.90;;;;;;;11.46;100.00;100906.69;5267888;28;20019;-72
2023/11/07 08:40:27;;;;;;;3.45;1.35;;;;;;;11.57;100.00;100907.16;5262928;28;20046;-72
2023/11/07 08:42:58;;;;;;;5.47;1.52;;;;;;;11.61;100.00;100905.81;5257790;28;20027;-72
2023/11/07 08:45:28;;;;;;;7.72;2.05;;;;;;;11.61;100.00;100913.03;5264174;28;20378;-72
2023/11/07 08:47:59;;;;;;;5.18;1.83;;;;;;;11.56;100.00;100910.84;5256017;28;20024;-72
2023/11/07 08:50:29;;;;;;;3.65;1.73;;;;;;;11.85;100.00;100906.78;5254888;28;20031;-73
2023/11/07 08:53:05;;;;;;;8.35;2.63;;;;;;;12.13;100.00;100908.00;5257313;28;20031;-72
2023/11/07 08:55:35;;;;;;;;;;;;;;;12.53;100.00;100906.13;5258358;28;20059;-72
2023/11/07 08:58:06;;;;;;;3.63;1.42;;;;;;;12.36;100.00;100910.75;5273970;28;19951;-72
2023/11/07 09:00:39;;;;;;;6.57;1.75;;;;;;;12.52;100.00;100911.69;5258915;28;20082;-72
2023/11/07 09:03:10;;;;;;;8.10;1.85;;;;;;;12.35;100.00;100914.47;5263322;28;20020;-72
2023/11/07 09:05:41;;;;;;;5.47;1.60;;;;;;;12.03;100.00;100926.19;5259481;28;20031;-72
2023/11/07 09:08:11;;;;;;;5.53;1.85;;;;;;;11.77;100.00;100922.91;5266139;28;20025;-72
2023/11/07 09:10:42;;;;;;;14.00;2.17;;;;;;;11.92;100.00;100937.31;5267974;28;20488;-72
2023/11/07 09:13:14;;;;;;;6.53;2.33;;;;;;;11.93;100.00;100934.47;5265549;28;20197;-72
2023/11/07 09:15:45;;;;;;;5.35;1.90;;;;;;;11.82;100.00;100936.69;5268663;28;20028;-72
2023/11/07 09:18:15;;;;;;;8.05;2.15;;;;;;;11.78;100.00;100938.00;5272098;28;20088;-71
2023/11/07 09:20:46;;;;;;;7.57;1.92;;;;;;;11.73;100.00;100935.00;5265750;28;20528;-72
2023/11/07 09:23:17;;;;;;;14.45;5.65;;;;;;;12.04;100.00;100946.69;5266342;28;20028;-72
2023/11/07 09:25:47;;;;;;;9.95;1.95;;;;;;;12.47;100.00;100931.03;5262539;28;20028;-72
2023/11/07 09:28:18;;;;;;;6.32;2.10;;;;;;;12.96;100.00;100938.81;5261581;28;20512;-72
2023/11/07 09:30:49;;;;;;;5.60;2.38;;;;;;;13.01;100.00;100949.06;5261365;28;20429;-72
2023/11/07 09:33:20;;;;;;;4.68;2.15;;;;;;;13.35;100.00;100952.16;5258125;28;20084;-72
2023/11/07 09:35:50;;;;;;;6.90;1.83;;;;;;;13.49;100.00;100961.28;5261222;28;20031;-72
2023/11/07 09:38:21;;;;;;;9.32;2.80;;;;;;;13.42;100.00;100963.88;5254952;28;20020;-72
2023/11/07 09:40:53;;;;;;;8.55;2.00;;;;;;;12.90;100.00;100959.22;5253360;28;20393;-73
2023/11/07 09:43:26;;;;;;;10.95;2.40;;;;;;;12.98;100.00;100963.69;5251772;28;20414;-72
2023/11/07 09:46:01;;;;;;;7.97;2.20;;;;;;;12.96;100.00;100968.44;5258335;28;20032;-72
2023/11/07 09:48:31;;;;;;;5.60;2.38;;;;;;;12.81;100.00;100957.59;5255127;28;20155;-72
2023/11/07 09:51:04;;;;;;;3.55;1.77;;;;;;;12.46;100.00;100958.13;5261223;28;20031;-72
2023/11/07 09:53:37;;;;;;;11.68;2.53;;;;;;;12.50;100.00;100962.13;5258003;28;20103;-72
2023/11/07 09:56:10;;;;;;;6.07;1.60;;;;;;;12.43;100.00;100970.06;5254212;28;20027;-72
2023/11/07 09:58:47;;;;;;;4.07;1.75;;;;;;;12.66;100.00;100968.28;5264327;28;20016;-72
2023/11/07 10:01:18;;;;;;;8.13;2.25;;;;;;;12.55;100.00;100975.91;5255747;28;20489;-72
2023/11/07 10:03:51;;;;;;;3.63;1.80;;;;;;;12.76;100.00;100976.13;5257733;28;20062;-72
2023/11/07 10:06:21;;;;;;;5.70;1.70;;;;;;;12.85;100.00;100975.06;5256499;28;20024;-72
2023/11/07 10:08:55;;;;;;;7.13;1.65;;;;;;;12.93;100.00;100984.94;5261472;28;20105;-72
2023/11/07 10:11:25;;;;;;;4.72;1.75;;;;;;;12.88;100.00;100981.94;5258401;28;20081;-73
2023/11/07 10:14:02;;;;;;;3.03;1.52;;;;;;;12.69;100.00;100981.38;5257273;28;20033;-72
2023/11/07 10:16:36;;;;;;;6.50;1.90;;;;;;;12.74;100.00;100988.09;5260924;28;20024;-72
2023/11/07 10:19:12;;;;;;;4.30;1.67;;;;;;;12.80;100.00;100993.63;5255711;28;20020;-72
2023/11/07 10:21:42;;;;;;;4.85;1.90;;;;;;;12.74;100.00;100988.09;5260480;28;20092;-72
2023/11/07 10:24:13;;;;;;;2.90;1.58;;;;;;;12.65;100.00;101006.97;5258809;28;20024;-72
2023/11/07 10:26:51;;;;;;;4.57;1.63;;;;;;;12.27;100.00;101002.44;5258831;28;20027;-72
2023/11/07 10:29:25;;;;;;;6.18;1.55;;;;;;;12.34;100.00;100998.03;5265335;28;20028;-72
2023/11/07 10:32:00;;;;;;;2.72;1.90;;;;;;;12.31;100.00;100998.38;5257025;28;20028;-72
2023/11/07 10:34:31;;;;;;;11.13;1.88;;;;;;;12.19;100.00;100993.34;5256938;28;20058;-72
2023/11/07 10:37:05;;;;;;;8.18;1.98;;;;;;;12.29;100.00;101001.22;5261593;28;20044;-72
2023/11/07 10:39:35;;;;;;;3.67;1.80;;;;;;;12.34;100.00;100996.16;5263828;28;20020;-72
2023/11/07 10:42:19;;;;;;;3.85;1.33;;;;;;;12.48;100.00;100996.47;5253103;28;20033;-72
2023/11/07 10:44:59;;;;;;;7.55;1.50;;;;;;;12.45;100.00;101011.13;5255000;28;20534;-73
2023/11/07 10:47:35;;;;;;;4.57;1.65;;;;;;;12.34;100.00;101009.63;5255143;28;20038;-72
2023/11/07 10:50:07;;;;;;;4.80;1.52;;;;;;;12.25;100.00;101005.31;5262021;28;20099;-72
2023/11/07 10:52:37;;;;;;;3.47;1.48;;;;;;;12.25;100.00;100999.06;5259567;28;20048;-72
2023/11/07 10:55:09;;;;;;;7.07;1.63;;;;;;;12.31;100.00;101001.91;5253052;28;20055;-72
2023/11/07 10:57:47;;;;;;;4.05;1.50;;;;;;;12.47;100.00;101001.00;5260990;28;20059;-72
2023/11/07 11:00:20;;;;;;;8.10;1.60;;;;;;;12.65;100.00;101006.13;5260782;28;20020;-72
2023/11/07 11:02:53;;;;;;;7.55;2.70;;;;;;;12.81;100.00;100984.50;5254462;28;20028;-72
2023/11/07 11:05:24;;;;;;;3.78;1.40;;;;;;;12.86;100.00;100998.28;5260512;28;20024;-72
2023/11/07 11:07:59;;;;;;;9.60;1.67;;;;;;;13.12;100.00;101005.19;5255953;28;20027;-72
2023/11/07 11:10:31;;;;;;;6.23;2.37;;;;;;;13.25;100.00;101004.59;5260009;28;20077;-73
2023/11/07 11:13:03;;;;;;;4.68;1.67;;;;;;;13.10;100.00;101002.69;5260869;28;20020;-73
2023/11/07 11:15:34;;;;;;;5.35;2.35;;;;;;;13.31;100.00;101001.22;5253730;28;20034;-72
2023/11/07 11:18:13;;;;;;;6.15;1.65;;;;;;;13.39;100.00;101001.13;5262567;28;20027;-73
2023/11/07 11:21:05;;;;;;;6.18;2.10;;;;;;;13.41;100.00;100999.94;5251308;28;20043;-72
2023/11/07 11:24:04;;;;;;;21.85;2.60;;;;;;;13.54;100.00;100991.22;5257614;28;20020;-72
2023/11/07 11:26:47;;;;;;;4.95;1.67;;;;;;;13.42;100.00;100995.41;5252710;28;20032;-72
2023/11/07 11:29:28;;;;;;;4.35;2.08;;;;;;;13.62;100.00;100998.41;5255144;28;20642;-72
2023/11/07 11:32:23;;;;;;;4.63;2.15;;;;;;;13.54;100.00;100982.31;5253822;28;20024;-72
2023/11/07 11:35:11;;;;;;;5.22;1.45;;;;;;;13.43;100.00;100987.13;5257214;28;20031;-72